Time;durP1;ratioP1;P1;durP2;ratioP2;P2;SDS_P1;SDS_P2;PMS_P1;PMS_P2;Temp;Humidity;BMP_temperature;BMP_pressure;BME280_temperature;BME280_humidity;BME280_pressure;Samples;Min_cycle;Max_cycle;Signal;HPM_P1;HPM_P2
2022/05/15 00:02:12;;;;;;;3.70;1.00;;;;;;;46.16;1.85;100786.84;4941819;28;20047;-60
2022/05/15 00:04:39;;;;;;;1.63;0.70;;;;;;;45.86;2.44;100777.69;4957879;28;20043;-58
2022/05/15 00:07:07;;;;;;;2.60;0.93;;;;;;;43.14;3.02;100786.16;4953398;28;20075;-59
2022/05/15 00:09:35;;;;;;;3.95;1.10;;;;;;;44.57;2.77;100770.44;4955066;28;20482;-59
2022/05/15 00:12:03;;;;;;;3.55;1.00;;;;;;;45.30;2.66;100775.03;4954569;28;20553;-60
2022/05/15 00:14:31;;;;;;;2.97;0.90;;;;;;;45.73;2.58;100761.63;4970049;28;20106;-60
2022/05/15 00:16:58;;;;;;;2.95;0.90;;;;;;;44.95;2.85;100768.63;4960334;28;20066;-59
2022/05/15 00:19:27;;;;;;;2.70;0.90;;;;;;;44.68;2.78;100764.06;4971726;28;20031;-59
2022/05/15 00:21:54;;;;;;;5.70;0.95;;;;;;;45.00;2.85;100768.66;4958418;28;20035;-61
2022/05/15 00:24:21;;;;;;;4.05;0.95;;;;;;;45.03;2.81;100764.78;4968621;28;20038;-60
2022/05/15 00:26:48;;;;;;;4.78;1.00;;;;;;;44.76;2.94;100762.34;4970722;28;20027;-59
2022/05/15 00:29:15;;;;;;;4.45;1.00;;;;;;;44.15;3.17;100762.25;4959995;28;20027;-60
2022/05/15 00:31:42;;;;;;;3.60;1.10;;;;;;;43.98;2.89;100756.22;4970491;28;20058;-61
2022/05/15 00:34:09;;;;;;;3.20;0.90;;;;;;;43.48;3.34;100763.94;4960155;28;20535;-58
2022/05/15 00:36:36;;;;;;;17.38;1.65;;;;;;;43.28;3.57;100753.13;4957764;28;20494;-61
2022/05/15 00:39:07;;;;;;;11.23;1.20;;;;;;;43.74;2.92;100747.75;4939484;28;20405;-60
2022/05/15 00:41:34;;;;;;;14.32;2.63;;;;;;;43.91;3.11;100743.09;4937828;29;20046;-59
2022/05/15 00:44:01;;;;;;;4.95;1.40;;;;;;;43.96;3.09;100750.97;4964055;28;20081;-59
2022/05/15 00:46:38;;;;;;;4.00;0.88;;;;;;;43.85;2.64;100750.81;4955110;28;20031;-59
2022/05/15 00:49:12;;;;;;;5.10;1.25;;;;;;;43.62;3.34;100748.81;4957452;28;20114;-62
2022/05/15 00:51:49;;;;;;;7.70;1.25;;;;;;;43.08;3.66;100750.91;4954614;28;20066;-61
2022/05/15 00:54:22;;;;;;;3.75;1.20;;;;;;;42.76;3.56;100746.88;4958121;28;20038;-61
2022/05/15 00:56:55;;;;;;;5.40;1.30;;;;;;;42.59;3.64;100752.22;4937394;29;20039;-60
2022/05/15 00:59:23;;;;;;;;;;;;;;;42.58;3.75;100752.72;4953199;28;20041;-59
2022/05/15 01:01:51;;;;;;;2.50;1.02;;;;;;;41.81;3.60;100756.03;4944035;28;19926;-60
2022/05/15 01:04:17;;;;;;;1.48;0.82;;;;;;;41.38;3.95;100748.66;4939335;29;20039;-59
2022/05/15 01:06:44;;;;;;;7.00;1.98;;;;;;;41.28;4.11;100753.56;4956087;28;20446;-60
2022/05/15 01:09:14;;;;;;;5.22;1.00;;;;;;;41.44;3.74;100753.25;4940313;28;20031;-59
2022/05/15 01:11:45;;;;;;;4.75;1.10;;;;;;;41.58;3.86;100749.72;4957672;28;20401;-61
2022/05/15 01:14:15;;;;;;;4.50;1.00;;;;;;;41.49;3.97;100752.63;4939835;29;20039;-60
2022/05/15 01:16:42;;;;;;;2.05;0.80;;;;;;;41.44;3.92;100746.75;4936881;29;20035;-61
2022/05/15 01:19:10;;;;;;;3.00;0.80;;;;;;;41.21;3.75;100748.19;4938437;28;20126;-61
2022/05/15 01:21:40;;;;;;;5.38;1.95;;;;;;;40.77;3.66;100739.91;4938605;29;20039;-62
2022/05/15 01:24:09;;;;;;;3.72;1.20;;;;;;;40.37;3.87;100748.50;4949307;28;20030;-61
2022/05/15 01:26:37;;;;;;;4.35;1.58;;;;;;;40.24;4.16;100757.19;4953637;28;20027;-61
2022/05/15 01:29:07;;;;;;;4.68;1.10;;;;;;;40.05;3.75;100742.09;4938328;29;20043;-60
2022/05/15 01:31:37;;;;;;;5.60;1.00;;;;;;;40.11;4.92;100745.91;4958122;28;20057;-61
2022/05/15 01:34:07;;;;;;;5.07;4.28;;;;;;;39.80;4.01;100745.88;4921756;29;20027;-61
2022/05/15 01:36:35;;;;;;;2.42;1.00;;;;;;;39.63;3.91;100743.72;4937321;29;20043;-60
2022/05/15 01:39:04;;;;;;;3.50;2.05;;;;;;;39.35;5.18;100745.56;4953802;28;20066;-60
2022/05/15 01:41:33;;;;;;;4.80;2.08;;;;;;;39.21;5.42;100752.56;4942282;28;20046;-60
2022/05/15 01:44:00;;;;;;;7.10;2.47;;;;;;;38.89;5.62;100742.31;4939810;29;20052;-60
2022/05/15 01:46:29;;;;;;;6.82;2.10;;;;;;;38.84;5.15;100745.75;4938080;29;20039;-59
2022/05/15 01:49:02;;;;;;;5.97;1.75;;;;;;;38.96;5.73;100745.72;4945177;28;20029;-60
2022/05/15 01:51:29;;;;;;;4.63;2.28;;;;;;;38.85;6.06;100750.97;4945015;28;20027;-59
2022/05/15 01:53:56;;;;;;;84.07;61.10;;;;;;;38.57;6.29;100758.41;4964475;28;20345;-59
2022/05/15 01:56:24;;;;;;;26.50;22.90;;;;;;;38.42;6.27;100754.44;4923038;29;20114;-60
2022/05/15 01:58:52;;;;;;;22.65;20.48;;;;;;;37.93;6.67;100757.63;4942456;28;20046;-62
2022/05/15 02:01:19;;;;;;;20.85;18.85;;;;;;;37.67;6.68;100753.09;4948633;28;20036;-60
2022/05/15 02:03:46;;;;;;;38.08;34.47;;;;;;;37.37;7.23;100760.88;4944259;28;20031;-60
2022/05/15 02:06:14;;;;;;;96.97;88.35;;;;;;;37.12;6.20;100752.22;4938792;29;20039;-61
2022/05/15 02:08:40;;;;;;;54.53;49.00;;;;;;;36.98;6.61;100758.28;4958267;28;20061;-60
2022/05/15 02:11:07;;;;;;;108.32;32.33;;;;;;;36.77;7.06;100757.56;4924550;28;20036;-61
2022/05/15 02:13:35;;;;;;;59.40;42.22;;;;;;;36.60;7.40;100756.00;4944662;28;20513;-61
2022/05/15 02:16:02;;;;;;;41.20;22.15;;;;;;;36.57;6.69;100768.22;4960317;28;20493;-62
2022/05/15 02:18:30;;;;;;;293.40;142.77;;;;;;;36.26;7.93;100762.84;4942295;29;20059;-59
2022/05/15 02:20:57;;;;;;;176.20;66.70;;;;;;;36.08;8.47;100770.97;4953603;28;20066;-61
2022/05/15 02:23:24;;;;;;;62.92;22.92;;;;;;;35.93;7.74;100778.19;4935288;29;20114;-61
2022/05/15 02:25:52;;;;;;;27.90;17.75;;;;;;;35.69;6.93;100780.28;4946113;28;20031;-61
2022/05/15 02:28:20;;;;;;;40.08;24.92;;;;;;;35.51;7.99;100775.00;4949492;28;20058;-59
2022/05/15 02:30:51;;;;;;;154.50;52.50;;;;;;;35.28;8.55;100777.84;4948972;28;20039;-60
2022/05/15 02:33:20;;;;;;;168.95;35.45;;;;;;;35.09;8.50;100777.41;4952993;28;20433;-61
2022/05/15 02:35:47;;;;;;;193.40;104.60;;;;;;;34.97;7.75;100783.66;4947405;28;20027;-60
2022/05/15 02:38:14;;;;;;;159.40;46.10;;;;;;;34.67;8.20;100789.44;4931899;28;20032;-61
2022/05/15 02:40:42;;;;;;;19.98;8.80;;;;;;;34.32;7.80;100791.56;4933270;29;20545;-60
2022/05/15 02:43:09;;;;;;;104.43;20.60;;;;;;;33.97;8.71;100789.25;4958498;28;20035;-60
2022/05/15 02:45:36;;;;;;;19.17;7.15;;;;;;;33.59;8.48;100790.09;4963014;28;20074;-59
2022/05/15 02:48:03;;;;;;;19.25;5.05;;;;;;;33.27;7.95;100787.59;4937575;28;20441;-60
2022/05/15 02:53:15;;;;;;;22.27;6.90;;;;;;;32.97;8.67;100801.56;4934941;28;20034;-59
2022/05/15 02:55:42;;;;;;;50.63;7.13;;;;;;;32.69;8.91;100794.97;4935209;28;20037;-59
2022/05/15 02:58:09;;;;;;;37.28;6.65;;;;;;;32.89;9.76;100797.22;4951855;28;20032;-58
2022/05/15 03:00:35;;;;;;;132.63;11.75;;;;;;;32.69;10.04;100799.78;4936218;29;20035;-59
2022/05/15 03:03:02;;;;;;;21.20;5.28;;;;;;;32.33;9.05;100802.06;4922069;28;20047;-58
2022/05/15 03:05:29;;;;;;;27.98;5.15;;;;;;;32.30;10.00;100805.66;4957052;28;20497;-58
2022/05/15 03:07:56;;;;;;;158.98;10.55;;;;;;;32.10;10.71;100797.72;4936912;29;20038;-58
2022/05/15 03:10:23;;;;;;;30.30;5.28;;;;;;;31.88;9.86;100807.47;4937796;28;20036;-58
2022/05/15 03:12:50;;;;;;;25.40;5.20;;;;;;;31.76;10.05;100807.91;4940638;28;20038;-59
2022/05/15 03:15:19;;;;;;;26.48;5.60;;;;;;;31.72;11.37;100807.09;4934895;29;20028;-57
2022/05/15 03:17:46;;;;;;;17.23;5.80;;;;;;;31.58;10.79;100805.94;4956566;28;20458;-58
2022/05/15 03:20:15;;;;;;;25.98;7.63;;;;;;;31.37;10.80;100806.00;4953508;28;20031;-58
2022/05/15 03:22:42;;;;;;;50.90;17.20;;;;;;;31.15;11.58;100819.25;4936626;28;20027;-58
2022/05/15 03:25:10;;;;;;;51.83;27.60;;;;;;;30.94;12.07;100820.09;4938423;29;20470;-58
2022/05/15 03:27:37;;;;;;;66.78;44.90;;;;;;;30.85;12.11;100816.88;4934856;29;20067;-58
2022/05/15 03:30:06;;;;;;;30.00;16.27;;;;;;;30.68;11.23;100812.03;4943849;28;20073;-59
2022/05/15 03:32:33;;;;;;;24.10;7.57;;;;;;;30.65;11.31;100810.84;4937503;28;20051;-58
2022/05/15 03:35:00;;;;;;;19.88;7.03;;;;;;;30.53;11.32;100811.22;4938078;28;20065;-58
2022/05/15 03:37:26;;;;;;;22.92;6.85;;;;;;;30.49;11.83;100818.00;4954531;28;20031;-58
2022/05/15 03:39:54;;;;;;;25.70;6.70;;;;;;;30.50;11.52;100814.00;4939496;29;20066;-58
2022/05/15 03:42:24;;;;;;;27.15;8.23;;;;;;;30.46;11.74;100813.19;4916711;28;20054;-58
2022/05/15 03:44:52;;;;;;;25.70;7.68;;;;;;;30.48;11.64;100819.22;4955012;28;20073;-58
2022/05/15 03:47:20;;;;;;;34.35;9.13;;;;;;;30.64;11.80;100819.66;4951229;28;20497;-58
2022/05/15 03:49:47;;;;;;;40.58;10.30;;;;;;;30.85;11.65;100818.88;4954295;28;20027;-59
2022/05/15 03:52:14;;;;;;;42.53;9.52;;;;;;;30.89;11.96;100820.50;4937479;28;20074;-58
2022/05/15 03:54:41;;;;;;;40.90;10.85;;;;;;;30.78;12.36;100819.69;4940892;29;20035;-59
2022/05/15 03:57:08;;;;;;;36.55;9.77;;;;;;;30.48;12.46;100816.41;4957829;28;20043;-59
2022/05/15 03:59:37;;;;;;;28.15;9.27;;;;;;;30.15;12.94;100826.75;4938094;29;20110;-59
2022/05/15 04:02:06;;;;;;;30.38;9.82;;;;;;;30.03;12.78;100824.28;4956578;28;20046;-59
2022/05/15 04:04:34;;;;;;;34.58;12.40;;;;;;;29.89;12.94;100835.44;4955435;28;20030;-59
2022/05/15 04:07:01;;;;;;;36.53;12.85;;;;;;;29.87;12.96;100835.03;4960033;28;20031;-59
2022/05/15 04:09:31;;;;;;;61.17;13.70;;;;;;;29.83;13.58;100828.59;4952812;28;20062;-59
2022/05/15 04:11:58;;;;;;;50.95;12.50;;;;;;;29.79;13.70;100837.78;4955619;28;20028;-58
2022/05/15 04:14:25;;;;;;;52.47;13.52;;;;;;;29.72;13.63;100840.56;4949719;28;20031;-58
2022/05/15 04:16:52;;;;;;;37.38;12.45;;;;;;;29.58;13.46;100851.69;4941478;28;20542;-58
2022/05/15 04:19:20;;;;;;;38.25;13.27;;;;;;;29.37;13.81;100845.91;4942205;28;20046;-58
2022/05/15 04:21:47;;;;;;;46.25;13.02;;;;;;;29.18;14.14;100844.19;4942240;29;20035;-58
2022/05/15 04:24:16;;;;;;;41.75;13.50;;;;;;;29.06;15.03;100848.06;4945634;28;20050;-58
2022/05/15 04:26:44;;;;;;;46.67;16.02;;;;;;;29.05;14.67;100854.06;4955402;28;20079;-59
2022/05/15 04:29:11;;;;;;;50.20;15.85;;;;;;;29.07;14.28;100851.69;4957803;28;20042;-58
2022/05/15 04:31:38;;;;;;;51.28;15.02;;;;;;;29.03;14.33;100848.84;4961042;28;20027;-59
2022/05/15 04:34:06;;;;;;;72.30;15.07;;;;;;;29.03;14.28;100857.25;4965198;28;20504;-58
2022/05/15 04:36:36;;;;;;;59.70;14.23;;;;;;;28.82;14.77;100860.66;4943908;28;20381;-60
2022/05/15 04:39:04;;;;;;;96.45;16.45;;;;;;;28.70;14.61;100854.53;4954532;28;20043;-58
2022/05/15 04:41:31;;;;;;;98.97;16.08;;;;;;;28.72;14.82;100861.34;4959227;28;20031;-58
2022/05/15 04:43:59;;;;;;;93.75;18.10;;;;;;;28.70;14.77;100865.72;4945209;28;20024;-58
2022/05/15 04:46:29;;;;;;;78.25;19.13;;;;;;;28.90;15.17;100872.72;4945642;28;20037;-59
2022/05/15 04:48:57;;;;;;;112.93;19.42;;;;;;;28.86;15.01;100867.09;4958780;28;20395;-58
2022/05/15 04:51:23;;;;;;;113.15;20.73;;;;;;;28.68;15.06;100877.28;4952775;28;20031;-59
2022/05/15 04:53:51;;;;;;;108.50;24.88;;;;;;;28.83;14.93;100875.44;4937453;28;20027;-58
2022/05/15 04:56:18;;;;;;;106.57;27.60;;;;;;;28.72;15.75;100874.50;4962378;28;20043;-58
2022/05/15 04:58:44;;;;;;;161.75;30.58;;;;;;;28.41;15.23;100871.03;4957309;28;20062;-58
2022/05/15 05:01:11;;;;;;;165.65;32.08;;;;;;;28.27;15.58;100873.66;4963906;28;20121;-58
2022/05/15 05:03:38;;;;;;;139.70;30.33;;;;;;;28.29;15.82;100882.44;4951702;28;20044;-58
2022/05/15 05:06:05;;;;;;;121.13;28.48;;;;;;;28.28;15.58;100878.06;4948046;28;20552;-59
2022/05/15 05:08:33;;;;;;;122.18;28.73;;;;;;;28.35;15.36;100878.13;4955762;28;20501;-58
2022/05/15 05:11:00;;;;;;;129.32;27.27;;;;;;;28.31;15.70;100882.88;4955388;28;20118;-58
2022/05/15 05:13:27;;;;;;;117.90;25.73;;;;;;;28.12;16.26;100886.59;4936936;28;20049;-58
2022/05/15 05:15:53;;;;;;;144.88;28.00;;;;;;;27.92;16.30;100879.56;4948573;28;20027;-58
2022/05/15 05:18:20;;;;;;;112.60;25.52;;;;;;;27.72;16.25;100883.69;4952628;28;20104;-58
2022/05/15 05:20:47;;;;;;;123.60;26.55;;;;;;;27.49;16.62;100887.31;4951761;28;20042;-59
2022/05/15 05:23:14;;;;;;;110.03;26.63;;;;;;;27.33;17.99;100893.06;4956188;28;20125;-61
2022/05/15 05:25:42;;;;;;;110.90;27.15;;;;;;;27.24;18.49;100891.69;4947410;28;20034;-59
2022/05/15 05:28:09;;;;;;;127.90;27.50;;;;;;;27.10;18.64;100892.25;4954703;28;20043;-59
2022/05/15 05:30:37;;;;;;;127.15;27.20;;;;;;;26.92;18.87;100891.09;4951346;28;20409;-60
2022/05/15 05:33:05;;;;;;;114.47;25.85;;;;;;;26.80;19.14;100895.69;4963620;28;20027;-60
2022/05/15 05:35:32;;;;;;;144.65;26.65;;;;;;;26.79;19.70;100896.06;4950802;28;20098;-60
2022/05/15 05:37:58;;;;;;;159.07;27.33;;;;;;;26.81;19.28;100902.09;4952827;28;20059;-59
2022/05/15 05:40:25;;;;;;;131.25;28.90;;;;;;;26.85;17.96;100890.97;4956516;28;20410;-60
2022/05/15 05:42:52;;;;;;;142.25;30.08;;;;;;;26.72;18.49;100899.50;4952203;28;21542;-59
2022/05/15 05:45:19;;;;;;;140.82;27.48;;;;;;;26.70;18.68;100904.66;4950204;28;20031;-59
2022/05/15 05:47:48;;;;;;;133.23;28.90;;;;;;;26.72;18.88;100905.09;4948999;28;20128;-59
2022/05/15 05:50:18;;;;;;;134.23;29.05;;;;;;;26.42;18.62;100901.34;4934919;29;20105;-60
2022/05/15 05:52:45;;;;;;;131.50;30.48;;;;;;;26.39;19.04;100897.31;4951461;28;20032;-59
2022/05/15 05:55:14;;;;;;;135.10;29.95;;;;;;;26.52;18.87;100886.78;4958825;28;20038;-60
2022/05/15 05:57:42;;;;;;;151.52;30.08;;;;;;;26.44;19.10;100894.22;4948121;28;20039;-60
2022/05/15 06:00:14;;;;;;;122.45;28.17;;;;;;;26.45;18.90;100884.69;4955635;28;20043;-59
2022/05/15 06:02:41;;;;;;;117.20;28.50;;;;;;;26.39;19.72;100888.13;4933981;29;20039;-59
2022/05/15 06:05:08;;;;;;;123.45;28.55;;;;;;;26.37;18.92;100885.69;4955870;28;20098;-59
2022/05/15 06:07:35;;;;;;;126.28;27.85;;;;;;;26.66;18.84;100889.84;4948804;28;20043;-59
2022/05/15 06:10:05;;;;;;;144.20;29.90;;;;;;;26.55;19.20;100876.88;4953991;28;20051;-60
2022/05/15 06:12:31;;;;;;;123.10;27.50;;;;;;;26.11;19.85;100883.56;4947082;28;20023;-60
2022/05/15 06:14:58;;;;;;;172.00;29.02;;;;;;;25.83;20.08;100894.06;4936141;28;20039;-59
2022/05/15 06:17:28;;;;;;;140.20;29.75;;;;;;;25.78;20.85;100895.19;4937804;28;20118;-59
2022/05/15 06:19:56;;;;;;;172.70;30.92;;;;;;;25.64;20.97;100905.16;4952880;28;20031;-59
2022/05/15 06:22:23;;;;;;;182.18;33.95;;;;;;;25.74;20.38;100888.72;4952055;28;20045;-59
2022/05/15 06:24:50;;;;;;;188.10;33.83;;;;;;;25.53;20.50;100900.16;4955529;28;20502;-59
2022/05/15 06:27:17;;;;;;;165.07;33.95;;;;;;;25.57;20.17;100894.66;4954890;28;20114;-59
2022/05/15 06:29:43;;;;;;;222.60;34.88;;;;;;;25.54;21.12;100887.84;4952143;28;20027;-59
2022/05/15 06:32:12;;;;;;;166.35;32.50;;;;;;;25.35;20.80;100893.34;4948344;28;20027;-60
2022/05/15 06:34:38;;;;;;;191.05;32.50;;;;;;;25.25;21.25;100900.25;4934385;29;20046;-59
2022/05/15 06:37:05;;;;;;;168.52;34.08;;;;;;;25.14;21.26;100888.09;4957151;28;20035;-60
2022/05/15 06:39:32;;;;;;;180.13;34.67;;;;;;;25.25;20.45;100878.00;4951150;28;20031;-59
2022/05/15 06:42:00;;;;;;;153.55;32.53;;;;;;;25.29;20.91;100883.66;4957236;28;20023;-59
2022/05/15 06:44:42;;;;;;;166.32;32.80;;;;;;;25.12;21.26;100881.25;4921050;28;20054;-59
2022/05/15 06:47:09;;;;;;;149.27;32.53;;;;;;;25.14;21.36;100885.31;4927421;28;20036;-59
2022/05/15 06:49:36;;;;;;;171.50;33.50;;;;;;;25.13;21.32;100882.84;4947073;28;20036;-59
2022/05/15 06:52:03;;;;;;;148.05;33.60;;;;;;;25.13;21.91;100889.22;4946312;28;20390;-60
2022/05/15 06:54:30;;;;;;;165.70;34.75;;;;;;;25.11;21.58;100882.41;4942985;28;20031;-59
2022/05/15 06:59:42;;;;;;;153.95;34.55;;;;;;;25.10;22.29;100886.34;4946655;28;20031;-60
2022/05/15 07:02:09;;;;;;;153.05;34.47;;;;;;;25.03;22.52;100881.44;4952734;28;20043;-58
2022/05/15 07:04:36;;;;;;;162.02;37.38;;;;;;;24.92;22.65;100885.88;4944939;28;20414;-59
2022/05/15 07:07:03;;;;;;;146.63;38.15;;;;;;;24.77;21.94;100884.69;4951799;28;20508;-60
2022/05/15 07:09:30;;;;;;;177.50;37.47;;;;;;;24.91;21.97;100887.03;4944994;28;20023;-59
2022/05/15 07:11:57;;;;;;;163.07;38.72;;;;;;;24.77;22.31;100893.03;4947166;28;20035;-60
2022/05/15 07:14:24;;;;;;;165.20;37.80;;;;;;;24.67;22.24;100886.03;4950316;28;20034;-60
2022/05/15 07:16:51;;;;;;;162.90;39.13;;;;;;;24.63;22.24;100882.34;4953044;28;20386;-59
2022/05/15 07:19:19;;;;;;;167.95;37.63;;;;;;;24.61;23.32;100884.69;4952347;28;20065;-59
2022/05/15 07:21:46;;;;;;;160.43;37.47;;;;;;;24.59;23.62;100886.19;4950815;28;20023;-59
2022/05/15 07:24:13;;;;;;;142.80;37.92;;;;;;;24.50;22.92;100891.91;4954069;28;20044;-59
2022/05/15 07:26:44;;;;;;;154.57;37.83;;;;;;;24.53;22.96;100891.19;4938049;29;20038;-60
2022/05/15 07:29:14;;;;;;;152.15;41.17;;;;;;;24.50;23.01;100891.91;4949481;28;20047;-59
2022/05/15 07:31:42;;;;;;;160.02;45.08;;;;;;;24.41;23.54;100894.84;4948826;28;20083;-59
2022/05/15 07:34:10;;;;;;;140.23;40.60;;;;;;;24.41;22.90;100894.84;4945742;28;20078;-59
2022/05/15 07:36:37;;;;;;;159.13;41.38;;;;;;;24.21;23.81;100884.69;4947621;28;20039;-59
2022/05/15 07:39:04;;;;;;;150.68;40.40;;;;;;;24.09;23.90;100887.53;4950474;28;20165;-59
2022/05/15 07:41:31;;;;;;;146.13;38.78;;;;;;;24.10;24.33;100884.41;4951180;28;20046;-59
2022/05/15 07:43:58;;;;;;;152.32;38.13;;;;;;;24.13;23.81;100879.31;4949183;28;20039;-58
2022/05/15 07:46:25;;;;;;;132.65;36.55;;;;;;;23.91;24.25;100880.66;4953425;28;20093;-59
2022/05/15 07:48:54;;;;;;;133.32;35.17;;;;;;;23.93;24.11;100883.88;4944580;28;20031;-58
2022/05/15 07:51:21;;;;;;;133.85;34.10;;;;;;;23.92;24.12;100883.06;4950298;28;20579;-58
2022/05/15 07:53:48;;;;;;;112.75;31.80;;;;;;;23.86;23.37;100878.09;4946280;28;20023;-59
2022/05/15 07:56:15;;;;;;;117.30;32.80;;;;;;;23.76;23.65;100876.63;4944225;28;20717;-59
2022/05/15 07:58:43;;;;;;;109.13;30.70;;;;;;;23.76;23.62;100869.13;4948248;28;20517;-59
2022/05/15 08:01:09;;;;;;;87.10;27.73;;;;;;;23.77;23.02;100879.06;4952614;28;20046;-59
2022/05/15 08:03:42;;;;;;;95.05;25.73;;;;;;;23.72;22.98;100876.53;4952460;28;20043;-59
2022/05/15 08:08:58;;;;;;;109.07;22.25;;;;;;;23.75;21.88;100867.50;4949764;28;20039;-59
2022/05/15 08:11:28;;;;;;;78.63;19.77;;;;;;;23.78;22.44;100861.25;4937533;28;20027;-58
2022/05/15 08:14:00;;;;;;;88.25;17.17;;;;;;;23.72;22.42;100862.66;4953336;28;20058;-59
2022/05/15 08:16:30;;;;;;;38.92;13.80;;;;;;;23.75;21.83;100867.50;4957935;28;20030;-59
2022/05/15 08:24:29;;;;;;;27.50;9.75;;;;;;;23.91;21.24;100864.81;4953531;28;20086;-59
2022/05/15 08:26:56;;;;;;;32.30;8.43;;;;;;;23.87;21.02;100858.31;4938653;28;20031;-60
2022/05/15 08:29:23;;;;;;;23.08;7.20;;;;;;;24.02;20.53;100860.34;4953101;28;20628;-60
2022/05/15 08:31:50;;;;;;;44.67;6.38;;;;;;;24.20;19.46;100860.06;4957694;28;20027;-59
2022/05/15 08:34:17;;;;;;;26.13;5.72;;;;;;;24.25;19.67;100855.09;4956151;28;20039;-59
2022/05/15 08:36:44;;;;;;;18.55;4.93;;;;;;;24.25;19.24;100859.84;4953070;28;20031;-59
2022/05/15 08:39:13;;;;;;;21.10;4.75;;;;;;;24.26;19.34;100862.25;4939121;28;20513;-58
2022/05/15 08:41:50;;;;;;;21.75;4.70;;;;;;;24.23;19.56;100854.59;4953639;28;20035;-58
2022/05/15 08:44:29;;;;;;;20.15;4.57;;;;;;;24.23;19.35;100854.59;4959305;28;20063;-58
2022/05/15 08:47:09;;;;;;;19.35;4.53;;;;;;;24.36;18.18;100864.53;4953816;28;20039;-59
2022/05/15 08:49:53;;;;;;;16.85;4.40;;;;;;;24.54;18.33;100862.25;4949300;28;20117;-59
2022/05/15 08:52:55;;;;;;;24.23;5.15;;;;;;;24.56;18.22;100861.88;4955926;28;20047;-58
2022/05/15 08:55:25;;;;;;;16.67;4.10;;;;;;;24.49;18.14;100856.16;4917042;29;20039;-58
2022/05/15 08:57:57;;;;;;;15.50;3.85;;;;;;;24.51;18.15;100856.59;4964576;28;20034;-58
2022/05/15 09:00:38;;;;;;;10.00;3.50;;;;;;;24.65;17.83;100843.09;4963471;28;20480;-58
2022/05/15 09:03:16;;;;;;;17.50;3.85;;;;;;;25.07;16.85;100843.38;4958008;28;20051;-58
2022/05/15 09:05:54;;;;;;;8.48;3.10;;;;;;;24.87;17.36;100848.03;4966647;28;20047;-58
2022/05/15 09:08:31;;;;;;;16.05;3.83;;;;;;;24.54;17.66;100853.09;4959978;28;20152;-58
2022/05/15 09:11:01;;;;;;;20.02;4.13;;;;;;;24.38;18.05;100844.72;4964534;28;20031;-58
2022/05/15 09:13:57;;;;;;;9.98;3.75;;;;;;;24.31;17.93;100844.56;4948585;28;20027;-59
2022/05/15 09:16:30;;;;;;;15.10;3.92;;;;;;;24.01;18.50;100844.06;4961179;28;20403;-58
2022/05/15 09:19:06;;;;;;;14.05;3.67;;;;;;;23.96;18.09;100842.34;4963194;28;20038;-58
2022/05/15 09:21:33;;;;;;;12.88;3.97;;;;;;;23.82;18.80;100833.59;4961321;28;20035;-58
2022/05/15 09:24:38;;;;;;;12.50;3.88;;;;;;;23.71;18.88;100827.75;4970896;28;20030;-58
2022/05/15 09:27:18;;;;;;;11.57;3.35;;;;;;;23.62;19.44;100829.84;4961328;28;20051;-58
2022/05/15 09:30:09;;;;;;;16.25;3.30;;;;;;;23.68;18.44;100833.16;4966711;28;20023;-58
2022/05/15 09:32:42;;;;;;;17.77;3.50;;;;;;;24.19;17.58;100828.72;4966783;28;20032;-59
2022/05/15 09:35:27;;;;;;;18.98;3.90;;;;;;;24.14;17.39;100828.97;4958405;28;20035;-59
2022/05/15 09:43:41;;;;;;;19.73;4.15;;;;;;;24.28;16.92;100823.81;4954427;28;20477;-60
2022/05/15 09:46:18;;;;;;;16.83;4.00;;;;;;;24.16;17.01;100821.09;4945178;29;20058;-59
2022/05/15 09:49:14;;;;;;;23.17;4.63;;;;;;;24.16;16.26;100815.53;4963053;28;20038;-60
2022/05/15 09:51:52;;;;;;;16.90;4.50;;;;;;;24.53;15.64;100818.16;4951641;28;20031;-59
2022/05/15 09:54:31;;;;;;;22.52;4.65;;;;;;;24.37;16.00;100816.16;4959766;28;20038;-60
2022/05/15 09:57:24;;;;;;;24.10;4.50;;;;;;;24.63;15.28;100818.44;4961179;28;20074;-60
2022/05/15 09:59:59;;;;;;;21.50;5.18;;;;;;;24.56;15.65;100811.88;4963314;28;20138;-59
2022/05/15 10:02:25;;;;;;;;;;;;;;;24.49;15.44;100811.69;4959008;28;20505;-59
2022/05/15 10:04:54;;;;;;;19.95;4.65;;;;;;;24.25;15.70;100807.88;4960611;28;19918;-59
2022/05/15 10:07:34;;;;;;;30.48;5.32;;;;;;;24.68;15.40;100809.81;4955676;28;20061;-60
2022/05/15 10:10:23;;;;;;;34.03;5.25;;;;;;;24.00;16.13;100798.03;4961999;28;20046;-59
2022/05/15 10:12:56;;;;;;;26.75;5.57;;;;;;;23.66;16.82;100802.19;4963919;28;20134;-59
2022/05/15 10:15:25;;;;;;;28.90;5.50;;;;;;;23.44;17.18;100800.72;4969370;28;20038;-59
2022/05/15 10:17:54;;;;;;;24.27;6.07;;;;;;;23.38;17.43;100800.16;4970213;28;20485;-59
2022/05/15 10:20:29;;;;;;;23.90;5.93;;;;;;;23.17;18.19;100805.84;4969286;28;20053;-60
2022/05/15 10:23:25;;;;;;;44.78;6.55;;;;;;;22.75;18.66;100804.41;4967431;28;20106;-59
2022/05/15 10:26:12;;;;;;;30.67;6.63;;;;;;;22.55;19.09;100797.78;4970355;28;20038;-59
2022/05/15 10:29:25;;;;;;;33.10;6.85;;;;;;;22.48;19.75;100803.91;4969788;28;20062;-60
2022/05/15 10:32:03;;;;;;;42.97;7.00;;;;;;;22.29;19.82;100803.63;4952479;28;20063;-60
2022/05/15 10:34:31;;;;;;;23.50;7.13;;;;;;;22.28;20.46;100804.78;4968314;28;20508;-60
2022/05/15 10:37:18;;;;;;;41.67;7.82;;;;;;;22.18;20.40;100799.66;4960993;28;20507;-58
2022/05/15 10:40:03;;;;;;;31.10;7.57;;;;;;;22.20;20.66;100805.66;4955809;28;20031;-61
2022/05/15 10:42:48;;;;;;;;;;;;;;;22.13;20.44;100803.47;4960731;28;20038;-59
2022/05/15 10:45:44;;;;;;;27.65;7.75;;;;;;;22.15;20.45;100805.88;4959121;28;20009;-59
2022/05/15 10:48:14;;;;;;;27.38;7.82;;;;;;;22.13;20.75;100808.19;4958518;28;20043;-59
2022/05/15 10:51:00;;;;;;;34.75;9.38;;;;;;;22.30;20.63;100796.94;4962642;28;20053;-60
2022/05/15 10:59:36;;;;;;;35.70;11.32;;;;;;;22.24;20.78;100801.88;4967984;28;20129;-59
2022/05/15 11:02:24;;;;;;;43.88;11.25;;;;;;;22.37;20.78;100790.84;4963984;28;20047;-59
2022/05/15 11:05:08;;;;;;;37.78;10.80;;;;;;;22.29;20.91;100796.13;4958012;28;20127;-59
2022/05/15 11:07:49;;;;;;;35.78;10.50;;;;;;;22.07;20.70;100802.03;4943331;29;20570;-59
2022/05/15 11:10:42;;;;;;;49.40;11.15;;;;;;;21.83;20.98;100797.19;4965689;28;20516;-59
2022/05/15 11:13:19;;;;;;;27.52;10.27;;;;;;;21.71;21.24;100808.19;4944063;28;20074;-59
2022/05/15 11:15:56;;;;;;;34.85;10.88;;;;;;;21.63;22.20;100798.00;4966363;28;20113;-59
2022/05/15 11:18:28;;;;;;;27.50;10.18;;;;;;;21.59;21.35;100797.88;4966602;28;20042;-59
2022/05/15 11:21:01;;;;;;;34.63;9.80;;;;;;;21.60;21.51;100795.91;4957643;28;20075;-59
2022/05/15 11:23:43;;;;;;;37.58;10.20;;;;;;;21.46;22.04;100790.66;4968899;28;20442;-59
2022/05/15 11:26:20;;;;;;;23.27;8.98;;;;;;;21.35;21.82;100787.47;4965158;28;20569;-59
2022/05/15 11:28:54;;;;;;;27.33;9.70;;;;;;;21.80;20.41;100786.81;4940780;29;20526;-59
2022/05/15 11:31:31;;;;;;;27.05;8.32;;;;;;;21.78;20.54;100791.88;4943329;28;20031;-59
2022/05/15 11:34:06;;;;;;;28.55;8.20;;;;;;;21.69;19.95;100788.34;4964625;28;20042;-59
2022/05/15 11:36:47;;;;;;;28.98;8.38;;;;;;;21.61;19.37;100797.53;4967878;28;20046;-59
2022/05/15 11:39:14;;;;;;;23.60;6.60;;;;;;;21.80;19.21;100795.09;4957235;28;20122;-59
2022/05/15 11:41:43;;;;;;;17.52;6.60;;;;;;;22.40;17.81;100801.22;4966678;28;20054;-59
2022/05/15 11:44:20;;;;;;;20.55;5.47;;;;;;;22.64;17.36;100794.94;4964547;28;20436;-59
2022/05/15 11:46:51;;;;;;;15.18;5.13;;;;;;;22.74;17.14;100797.25;4957750;28;20040;-59
2022/05/15 11:49:39;;;;;;;15.68;4.75;;;;;;;22.68;16.83;100796.66;4942433;28;20069;-59
2022/05/15 11:52:06;;;;;;;19.65;4.95;;;;;;;22.52;16.80;100793.75;4963380;28;20094;-59
2022/05/15 11:54:41;;;;;;;16.52;4.38;;;;;;;22.19;17.45;100796.56;4967502;28;20039;-59
2022/05/15 11:57:15;;;;;;;14.63;4.25;;;;;;;22.59;16.85;100795.94;4957452;28;20039;-59